Portada
METAR-TAF:

METAR-TAF

Aeropuertos :

El Hierro, España

Aeropuerto de El Hierro

latitud: 27-49N, longitud: 017-53W, altitud: 32 m

Observación

El informe se hizo hace 36 minutos, a las 06:00 UTC
Viento 14 kt del noreste, variando entre norte y este-noreste
Temperatura 18°C
Humedad 73%
Presión 1026 hPa

METAR: GCHI 190600Z AUTO 04014KT 360V060 //// R34///// NSC 18/13 Q1026

Hora: 06:36 (06:36 UTC)

Pronóstico

El informe se hizo hace 4 horas y 36 minutos, a las 02:00 UTC
Pronóstico válido del 19 a las 03 UTC al 20 a las 03 UTC
Viento 15 kt del norte-noreste
Visibilidad 10 km o más
Nubes dispersas a una altura de 3000 ft

TAF: GCHI 190200Z 1903/2003 03015KT 9999 SCT030 TX21/1914Z TN17/1906Z

Observaciones y pronósticos meteorológicos de más de 4000 aeropuertos (mensajes METAR y TAF).

Los puntos amarillos y rojos representan las estaciones disponibles.

Ponga el ratón en el punto deseado para ver el nombre de la estación.

Haga clic para ver las observaciones y los pronósticos meteorológicos.

Para cambiar el mapa : haga clic en los botones verdes con una cruz de color negro para hacer un zoom, en el botón verde con un guión para alejar o en las flechas verdes para mapas adyacentes.


METAR-TAF: